KRHV/RHV METAR and TAF weather

Enter ICAO airport designator
Station Type Date Time Source
KRHV METAR 2024/07/24 04:55 UTC NOAA

KRHV 240455Z 31004KT 10SM SKC 25/13 A2994 RMK LAST


Station Type Date Time Source
KRHV Decoded METAR 2024/07/24 04:55 UTC NOAA

San Jose / Reid / Hillv, CA, United States (KRHV) 37-20N 121-49W
Jul 24, 2024 - 12:55 AM EDT / 2024.07.24 0455 UTC
Wind: from the NW (310 degrees) at 5 MPH (4 KT):0
Visibility: 10 mile(s):0
Sky conditions: clear
Temperature: 77 F (25 C)
Dew Point: 55 F (13 C)
Relative Humidity: 47%
Pressure (altimeter): 29.94 in. Hg (1013 hPa)
ob: KRHV 240455Z 31004KT 10SM SKC 25/13 A2994 RMK LAST
cycle: 5

Station Type Date Time Source
KRHV TAF UTC NOAA

Error!

Example: see airport list